Oyaad — LG9129 — position and weather

sailwx.info

Track history (hours):
 
Tides and Currents Weather Stations Pressure Air Temp Water Temp Dewpoint Dewpoint Depression Visibility Wind Speed Wind Dir Waves Ship Positions

Oyaad

Last reported at 2017-Nov-16 09:04 UTC. Time now 2017-Dec-15 06:43 UTC.
Position N 69°54' E 021°19'.
Warning: this ship's position is 28 days out of date.

Length 11 m.

Type: Fishing. MMSI: 257921700.

Date/timePositionNaut miles runAvg speedWind from/ knotsBaromVisibWave heightAir tempDewpointWater temp
2017-Nov-16 09:04N 69°54' E 021°19'0 0.0
2017-Nov-16 08:58N 69°54' E 021°19'0 0.0
2017-Nov-16 08:28N 69°54' E 021°19'0 0.0
2017-Nov-16 07:58N 69°54' E 021°19'0 0.0
2017-Nov-16 07:28N 69°54' E 021°19'0 0.0
2017-Nov-16 06:58N 69°54' E 021°19'0 0.0
2017-Nov-16 06:28N 69°54' E 021°19'0 0.0
2017-Nov-16 05:58N 69°54' E 021°19'0 0.0
2017-Nov-16 05:28N 69°54' E 021°19'0 0.0
2017-Nov-16 04:55N 69°54' E 021°19'0 0.0
2017-Nov-16 04:28N 69°54' E 021°19'0 0.0
2017-Nov-16 03:58N 69°54' E 021°19'0 0.0
2017-Nov-16 03:28N 69°54' E 021°19'0 0.0
2017-Nov-16 02:58N 69°54' E 021°19'0 0.0
2017-Nov-16 02:28N 69°54' E 021°19'0 0.0
2017-Nov-16 01:58N 69°54' E 021°19'0 0.0
2017-Nov-16 01:28N 69°54' E 021°19'0 0.0
2017-Nov-16 00:58N 69°54' E 021°19'0 0.0
2017-Nov-16 00:28N 69°54' E 021°19'0 0.0
2017-Nov-15 23:55N 69°54' E 021°19'0 0.0
2017-Nov-15 23:28N 69°54' E 021°19'0 0.0
2017-Nov-15 22:58N 69°54' E 021°19'0 0.0
2017-Nov-15 22:25N 69°54' E 021°19'0 0.0
2017-Nov-15 21:58N 69°54' E 021°19'0 0.0
2017-Nov-15 21:28N 69°54' E 021°19'0 0.0
2017-Nov-15 20:58N 69°54' E 021°19'0 0.0
2017-Nov-15 20:28N 69°54' E 021°19'0 0.0
2017-Nov-15 19:58N 69°54' E 021°19'0 0.0
2017-Nov-15 19:28N 69°54' E 021°19'0 0.0
2017-Nov-15 18:55N 69°54' E 021°19'0 0.0
2017-Nov-15 18:28N 69°54' E 021°19'0 0.0
2017-Nov-15 17:58N 69°54' E 021°19'0 0.0
2017-Nov-15 17:28N 69°54' E 021°19'0 0.0
2017-Nov-15 16:58N 69°54' E 021°19'0 0.0
2017-Nov-15 16:28N 69°54' E 021°19'0 0.0
2017-Nov-15 15:58N 69°54' E 021°19'0 0.3
2017-Nov-15 15:30N 69°54' E 021°19'4 7.2
2017-Nov-15 15:00N 69°54' E 021°08'4 7.8
2017-Nov-15 14:30N 69°52' E 020°59'1 0.6
2017-Nov-15 12:59N 69°52' E 020°56'4 7.4
2017-Nov-15 12:30N 69°55' E 021°02'5 7.0
2017-Nov-15 11:50N 69°60' E 021°05'3 7.3
2017-Nov-15 11:28N 70°02' E 021°00'1 1.2
2017-Nov-15 10:58N 70°02' E 020°59'1 3.2
2017-Nov-15 10:30N 70°01' E 021°02'2 2.9
2017-Nov-15 09:46N 69°59' E 021°04'0 0.2
2017-Nov-15 09:14N 69°59' E 021°04'0 0.6
2017-Nov-15 08:52N 69°59' E 021°05'0 0.3
2017-Nov-15 08:15N 69°60' E 021°05'0 1.9
2017-Nov-15 08:01N 70°00' E 021°06'2 4.6
2017-Nov-15 07:29N 70°02' E 021°10'0 0.3
2017-Nov-15 06:53N 70°02' E 021°10'0 0.4
2017-Nov-15 06:22N 70°02' E 021°11'0 0.4
2017-Nov-15 06:00N 70°02' E 021°11'0 1.0
2017-Nov-15 05:30N 70°01' E 021°10'4 6.9
2017-Nov-15 04:58N 69°58' E 021°10'3 6.1
2017-Nov-15 04:29N 69°55' E 021°14'2 3.6
2017-Nov-15 03:58N 69°54' E 021°19'0 0.0
2017-Nov-15 03:28N 69°54' E 021°19'0 0.0
2017-Nov-15 02:58N 69°54' E 021°19'0 0.0
2017-Nov-15 02:25N 69°54' E 021°19'0 0.0
2017-Nov-15 01:58N 69°54' E 021°19'0 0.0
2017-Nov-15 01:28N 69°54' E 021°19'0 0.0
2017-Nov-15 00:58N 69°54' E 021°19'0 0.0
2017-Nov-15 00:28N 69°54' E 021°19'0 0.0
2017-Nov-14 23:58N 69°54' E 021°19'0 0.0
2017-Nov-14 23:28N 69°54' E 021°19'0 0.0
2017-Nov-14 22:58N 69°54' E 021°19'0 0.0
2017-Nov-14 22:28N 69°54' E 021°19'0 0.0
2017-Nov-14 21:58N 69°54' E 021°19'0 0.0
2017-Nov-14 21:28N 69°54' E 021°19'0 0.0
2017-Nov-14 20:58N 69°54' E 021°19'0 0.0
2017-Nov-14 20:28N 69°54' E 021°19'0 0.0
2017-Nov-14 19:58N 69°54' E 021°19'0 0.0
2017-Nov-14 19:28N 69°54' E 021°19'0 0.0
2017-Nov-14 18:58N 69°54' E 021°19'0 0.0
2017-Nov-14 18:28N 69°54' E 021°19'0 0.0
2017-Nov-14 17:58N 69°54' E 021°19'0 0.0
2017-Nov-14 17:28N 69°54' E 021°19'1 1.1
2017-Nov-14 16:59N 69°55' E 021°18'1 1.2
2017-Nov-14 16:30N 69°54' E 021°16'0 0.9
2017-Nov-14 15:56N 69°55' E 021°15'2 5.2
2017-Nov-14 15:29N 69°56' E 021°10'4 6.9
2017-Nov-14 14:58N 69°60' E 021°10'3 5.6
2017-Nov-14 14:29N 70°03' E 021°10'0 0.2
2017-Nov-14 14:00N 70°03' E 021°10'0 0.2
2017-Nov-14 13:19N 70°02' E 021°10'0 0.4
2017-Nov-14 12:55N 70°02' E 021°11'2 5.0
2017-Nov-14 12:29N 70°02' E 021°04'2 3.8
2017-Nov-14 11:59N 70°02' E 020°59'1 2.4
2017-Nov-14 11:30N 70°01' E 021°01'0 0.2
2017-Nov-14 10:58N 70°01' E 021°01'2 3.5
2017-Nov-14 10:23N 69°60' E 021°05'0 0.9
2017-Nov-14 10:00N 69°59' E 021°05'0 0.2
2017-Nov-14 09:13N 69°60' E 021°05'0 0.3
2017-Nov-14 08:38N 69°60' E 021°05'0 2.2
2017-Nov-14 08:30N 69°59' E 021°04'0 0.2
2017-Nov-14 07:32N 69°59' E 021°04'0 1.0
2017-Nov-14 07:30N 69°59' E 021°04'4 7.3
2017-Nov-14 07:00N 69°56' E 021°09'4 7.3
2017-Nov-14 06:29N 69°54' E 021°19'0 0.3
2017-Nov-14 05:59N 69°54' E 021°19'0 0.0
2017-Nov-14 05:29N 69°54' E 021°19'0 0.0
2017-Nov-14 04:56N 69°54' E 021°19'0 0.0
2017-Nov-14 04:29N 69°54' E 021°19'0 0.0
2017-Nov-14 03:59N 69°54' E 021°19'0 0.0
2017-Nov-14 03:29N 69°54' E 021°19'0 0.0
2017-Nov-14 02:59N 69°54' E 021°19'0 0.0
2017-Nov-14 02:29N 69°54' E 021°19'0 0.0
2017-Nov-14 01:59N 69°54' E 021°19'0 0.0
2017-Nov-14 01:29N 69°54' E 021°19'0 0.0
2017-Nov-14 00:59N 69°54' E 021°19'0 0.0
2017-Nov-14 00:26N 69°54' E 021°19'0 0.0
2017-Nov-13 23:59N 69°54' E 021°19'0 0.0
2017-Nov-13 23:29N 69°54' E 021°19'0 0.0
2017-Nov-13 22:59N 69°54' E 021°19'0 0.0
2017-Nov-13 22:29N 69°54' E 021°19'0 0.0
2017-Nov-13 21:59N 69°54' E 021°19'0 0.0
2017-Nov-13 02:00N 69°54' E 021°19'0 0.0
2017-Nov-13 01:30N 69°54' E 021°19'0 0.0
2017-Nov-13 01:00N 69°54' E 021°19'0 0.0
2017-Nov-13 00:30N 69°54' E 021°19'0 0.0
2017-Nov-13 00:00N 69°54' E 021°19'0 0.0
2017-Nov-12 23:30N 69°54' E 021°19'0 0.0
2017-Nov-12 23:00N 69°54' E 021°19'0 0.0
2017-Nov-12 22:30N 69°54' E 021°19'0 0.0
2017-Nov-12 22:00N 69°54' E 021°19'0 0.0
2017-Nov-12 21:30N 69°54' E 021°19'0 0.0
2017-Nov-12 21:00N 69°54' E 021°19'0 0.0
2017-Nov-12 20:30N 69°54' E 021°19'0 0.0
2017-Nov-12 20:00N 69°54' E 021°19'0 0.0
2017-Nov-12 19:30N 69°54' E 021°19'0 0.0
2017-Nov-12 19:00N 69°54' E 021°19'0 0.0
2017-Nov-12 18:30N 69°54' E 021°19'0 0.0
2017-Nov-12 18:00N 69°54' E 021°19'0 0.0
2017-Nov-12 17:30N 69°54' E 021°19'0 0.0
2017-Nov-12 17:00N 69°54' E 021°19'0 0.0
2017-Nov-12 16:30N 69°54' E 021°19'0 0.0
2017-Nov-12 16:00N 69°54' E 021°19'0 0.0
2017-Nov-12 15:30N 69°54' E 021°19'0 0.0
2017-Nov-12 15:00N 69°54' E 021°19'0 0.0
2017-Nov-12 14:30N 69°54' E 021°19'3 5.3
2017-Nov-12 14:00N 69°55' E 021°12'4 7.2
2017-Nov-12 13:27N 69°59' E 021°06'3 7.1
2017-Nov-12 13:00N 70°01' E 021°02'1 2.2
2017-Nov-12 12:29N 70°02' E 020°59'0 0.3
2017-Nov-12 11:59N 70°02' E 020°59'3 6.7
2017-Nov-12 11:30N 70°03' E 021°08'1 1.3
2017-Nov-12 10:55N 70°03' E 021°10'0 0.4
2017-Nov-12 10:30N 70°03' E 021°10'1 1.7
2017-Nov-12 09:59N 70°03' E 021°10'2 3.7
2017-Nov-12 09:30N 70°01' E 021°06'0 0.5
2017-Nov-12 09:00N 70°01' E 021°07'1 2.1
2017-Nov-12 08:29N 70°00' E 021°05'1 0.7
2017-Nov-12 07:35N 69°59' E 021°05'0 0.1
2017-Nov-12 07:01N 69°59' E 021°05'0 7.3
2017-Nov-12 07:00N 69°59' E 021°05'4 7.5
2017-Nov-12 06:30N 69°56' E 021°10'3 6.8
2017-Nov-12 06:00N 69°54' E 021°19'0 0.0
2017-Nov-12 05:30N 69°54' E 021°19'0 0.0
2017-Nov-12 05:00N 69°54' E 021°19'0 0.0
2017-Nov-12 04:30N 69°54' E 021°19'0 0.0
2017-Nov-12 04:00N 69°54' E 021°19'0 0.0
2017-Nov-12 03:30N 69°54' E 021°19'0 0.0
2017-Nov-12 03:00N 69°54' E 021°19'0 0.0
2017-Nov-12 02:30N 69°54' E 021°19'0 0.0
2017-Nov-12 02:00N 69°54' E 021°19'0 0.0
2017-Nov-12 01:30N 69°54' E 021°19'0 0.0
2017-Nov-12 00:57N 69°54' E 021°19'0 0.0
2017-Nov-12 00:30N 69°54' E 021°19'0 0.0
2017-Nov-12 00:00N 69°54' E 021°19'0 0.0
2017-Nov-11 23:30N 69°54' E 021°19'0 0.0
2017-Nov-11 23:00N 69°54' E 021°19'0 0.0
2017-Nov-11 22:27N 69°54' E 021°19'0 0.0
2017-Nov-11 22:00N 69°54' E 021°19'0 0.0
2017-Nov-11 21:30N 69°54' E 021°19'0 0.0
2017-Nov-11 21:00N 69°54' E 021°19'0 0.0
2017-Nov-11 20:30N 69°54' E 021°19'0 0.0
2017-Nov-11 20:00N 69°54' E 021°19'0 0.0
2017-Nov-11 19:30N 69°54' E 021°19'0 0.0
2017-Nov-11 19:00N 69°54' E 021°19'0 0.0
2017-Nov-11 18:30N 69°54' E 021°19'0 0.0
2017-Nov-11 18:00N 69°54' E 021°19'0 0.0
2017-Nov-11 17:27N 69°54' E 021°19'0 0.0
2017-Nov-11 17:00N 69°54' E 021°19'0 0.0
2017-Nov-11 16:30N 69°54' E 021°19'0 0.0
2017-Nov-11 16:00N 69°54' E 021°19'0 0.0
2017-Nov-11 15:30N 69°54' E 021°19'0 0.0
2017-Nov-11 15:00N 69°54' E 021°19'2 3.3
2017-Nov-11 14:30N 69°55' E 021°15'3 6.5
2017-Nov-11 14:00N 69°58' E 021°10'4 7.1
2017-Nov-11 13:30N 70°01' E 021°10'1 2.2
2017-Nov-11 12:50N 70°03' E 021°10'0 0.3
2017-Nov-11 12:28N 70°03' E 021°10'0 0.3
2017-Nov-11 11:59N 70°03' E 021°10'1 1.3
2017-Nov-11 11:30N 70°03' E 021°10'0 0.2
2017-Nov-11 11:00N 70°03' E 021°10'0 0.4
2017-Nov-11 10:29N 70°03' E 021°10'1 2.3
2017-Nov-11 09:59N 70°02' E 021°09'1 2.8
2017-Nov-11 09:28N 70°01' E 021°07'0 0.2
2017-Nov-11 09:00N 70°01' E 021°07'1 2.9
2017-Nov-11 08:30N 69°60' E 021°05'0 0.6
2017-Nov-11 07:58N 69°59' E 021°05'0 0.2
2017-Nov-11 07:13N 69°59' E 021°05'2 7.4
2017-Nov-11 07:00N 69°58' E 021°06'4 7.4
2017-Nov-11 06:29N 69°55' E 021°13'2 4.6
2017-Nov-11 06:00N 69°54' E 021°19'0 0.0
2017-Nov-11 05:30N 69°54' E 021°19'0 0.0
2017-Nov-11 05:00N 69°54' E 021°19'0 0.0
2017-Nov-11 04:30N 69°54' E 021°19'0 0.0
2017-Nov-11 04:00N 69°54' E 021°19'0 0.0
2017-Nov-11 03:30N 69°54' E 021°19'0 0.0
2017-Nov-11 03:00N 69°54' E 021°19'0 0.0
2017-Nov-11 02:30N 69°54' E 021°19'0 0.0
2017-Nov-11 02:00N 69°54' E 021°19'0 0.0
2017-Nov-11 01:30N 69°54' E 021°19'0 0.0
2017-Nov-11 01:00N 69°54' E 021°19'0 0.0
2017-Nov-11 00:30N 69°54' E 021°19'0 0.0
2017-Nov-11 00:00N 69°54' E 021°19'0 0.0
2017-Nov-10 23:30N 69°54' E 021°19'0 0.0
2017-Nov-10 23:00N 69°54' E 021°19'0 0.0
2017-Nov-10 22:27N 69°54' E 021°19'0 0.0
2017-Nov-10 22:00N 69°54' E 021°19'0 0.0
2017-Nov-10 21:30N 69°54' E 021°19'0 0.0
2017-Nov-10 21:00N 69°54' E 021°19'0 0.0
2017-Nov-10 20:30N 69°54' E 021°19'0 0.0
2017-Nov-10 20:00N 69°54' E 021°19'0 0.0
2017-Nov-10 19:30N 69°54' E 021°19'0 0.0
2017-Nov-10 19:00N 69°54' E 021°19'0 0.0
2017-Nov-10 18:30N 69°54' E 021°19'0 0.0
2017-Nov-10 18:00N 69°54' E 021°19'0 0.0
2017-Nov-10 17:30N 69°54' E 021°19'0 0.0
2017-Nov-10 17:00N 69°54' E 021°19'0 0.0
2017-Nov-10 16:30N 69°54' E 021°19'0 0.0
2017-Nov-10 16:00N 69°54' E 021°19'0 0.0
2017-Nov-10 15:30N 69°54' E 021°19'0 0.0
2017-Nov-10 14:57N 69°54' E 021°19'0 0.0
2017-Nov-10 14:30N 69°54' E 021°19'0 0.0
2017-Nov-10 14:00N 69°54' E 021°19'0 0.0
2017-Nov-10 13:30N 69°54' E 021°19'0 0.0
2017-Nov-10 13:00N 69°54' E 021°19'0 0.0
2017-Nov-10 12:30N 69°54' E 021°19'0 0.0
2017-Nov-10 12:00N 69°54' E 021°19'4 7.1
2017-Nov-10 11:29N 69°56' E 021°10'3 5.8
2017-Nov-10 10:54N 69°59' E 021°05'2 4.5
2017-Nov-10 10:29N 70°01' E 021°07'2 4.8
2017-Nov-10 09:59N 70°03' E 021°09'1 2.7
2017-Nov-10 09:30N 70°02' E 021°10'4 6.7
2017-Nov-10 08:58N 69°58' E 021°10'3 7.0
2017-Nov-10 08:30N 69°55' E 021°13'2 4.5
2017-Nov-10 07:59N 69°54' E 021°19'0 0.0
2017-Nov-10 07:29N 69°54' E 021°19'0 0.0
2017-Nov-10 06:59N 69°54' E 021°19'0 0.0
2017-Nov-10 06:29N 69°54' E 021°19'0 0.0
2017-Nov-10 05:59N 69°54' E 021°19'0 0.0
2017-Nov-10 05:29N 69°54' E 021°19'0 0.0
2017-Nov-10 04:59N 69°54' E 021°19'0 0.0
2017-Nov-10 04:29N 69°54' E 021°19'0 0.0
2017-Nov-10 03:59N 69°54' E 021°19'0 0.0
2017-Nov-10 03:29N 69°54' E 021°19'0 0.0
2017-Nov-10 02:59N 69°54' E 021°19'0 0.0
2017-Nov-10 02:29N 69°54' E 021°19'0 0.0
2017-Nov-10 01:59N 69°54' E 021°19'0 0.0
2017-Nov-10 01:29N 69°54' E 021°19'0 0.0
2017-Nov-10 00:59N 69°54' E 021°19'0 0.0
2017-Nov-10 00:29N 69°54' E 021°19'0 0.0
2017-Nov-09 23:59N 69°54' E 021°19'0 0.0
2017-Nov-09 23:29N 69°54' E 021°19'0 0.0
2017-Nov-09 22:59N 69°54' E 021°19'0 0.0
2017-Nov-09 22:29N 69°54' E 021°19'0 0.0
2017-Nov-09 21:59N 69°54' E 021°19'0 0.0
2017-Nov-09 21:29N 69°54' E 021°19'0 0.0
2017-Nov-09 20:59N 69°54' E 021°19'0 0.0
2017-Nov-09 20:29N 69°54' E 021°19'0 0.0
2017-Nov-09 19:56N 69°54' E 021°19'0 0.0
2017-Nov-09 19:29N 69°54' E 021°19'0 0.0
2017-Nov-09 18:59N 69°54' E 021°19'0 0.0
2017-Nov-09 18:29N 69°54' E 021°19'0 0.0
2017-Nov-09 17:59N 69°54' E 021°19'0 0.0
2017-Nov-09 17:29N 69°54' E 021°19'0 0.0
2017-Nov-09 16:59N 69°54' E 021°19'0 0.0
2017-Nov-09 16:29N 69°54' E 021°19'0 0.0
2017-Nov-09 15:59N 69°54' E 021°19'0 0.0
2017-Nov-09 15:29N 69°54' E 021°19'0 0.0
2017-Nov-09 14:59N 69°54' E 021°19'0 0.0
2017-Nov-09 14:29N 69°54' E 021°19'0 0.0
2017-Nov-09 13:59N 69°54' E 021°19'0 0.0
2017-Nov-09 13:29N 69°54' E 021°19'0 0.0
2017-Nov-09 12:59N 69°54' E 021°19'0 0.0
2017-Nov-09 12:29N 69°54' E 021°19'0 0.0
2017-Nov-09 11:59N 69°54' E 021°19'0 0.0
2017-Nov-09 11:29N 69°54' E 021°19'0 0.0
2017-Nov-09 10:59N 69°54' E 021°19'0 0.0
2017-Nov-09 10:29N 69°54' E 021°19'0 0.0
2017-Nov-09 09:59N 69°54' E 021°19'0 0.0
2017-Nov-09 09:29N 69°54' E 021°19'0 0.0
2017-Nov-09 08:59N 69°54' E 021°19'0 0.0
2017-Nov-09 08:29N 69°54' E 021°19'0 0.0
2017-Nov-09 07:59N 69°54' E 021°19'0 0.0
2017-Nov-09 07:29N 69°54' E 021°19'0 0.0
2017-Nov-09 06:59N 69°54' E 021°19'0 0.0
2017-Nov-09 06:29N 69°54' E 021°19'0 0.0
2017-Nov-09 05:59N 69°54' E 021°19'0 0.0
2017-Nov-09 05:29N 69°54' E 021°19'0 0.0
2017-Nov-09 04:59N 69°54' E 021°19'0 0.0
2017-Nov-09 04:29N 69°54' E 021°19'0 0.0
2017-Nov-09 03:59N 69°54' E 021°19'0 0.0
2017-Nov-09 03:29N 69°54' E 021°19'0 0.0
2017-Nov-09 02:59N 69°54' E 021°19'0 0.0
2017-Nov-09 02:29N 69°54' E 021°19'0 0.0
2017-Nov-09 01:59N 69°54' E 021°19'0 0.0
2017-Nov-09 01:29N 69°54' E 021°19'0 0.0
2017-Nov-09 00:59N 69°54' E 021°19'0 0.0
2017-Nov-09 00:26N 69°54' E 021°19'0 0.0
2017-Nov-08 23:59N 69°54' E 021°19'0 0.0
2017-Nov-08 23:29N 69°54' E 021°19'0 0.0
2017-Nov-08 22:59N 69°54' E 021°19'0 0.0
2017-Nov-08 22:29N 69°54' E 021°19'0 0.0
2017-Nov-08 21:59N 69°54' E 021°19'0 0.0
2017-Nov-08 21:29N 69°54' E 021°19'0 0.0
2017-Nov-08 20:59N 69°54' E 021°19'0 0.0
2017-Nov-08 20:29N 69°54' E 021°19'0 0.0
2017-Nov-08 19:59N 69°54' E 021°19'0 0.0
2017-Nov-08 19:29N 69°54' E 021°19'0 0.0
2017-Nov-08 18:59N 69°54' E 021°19'0 0.0
2017-Nov-08 18:29N 69°54' E 021°19'0 0.0
2017-Nov-08 17:59N 69°54' E 021°19'0 0.0
2017-Nov-08 17:29N 69°54' E 021°19'0 0.0
2017-Nov-08 16:59N 69°54' E 021°19'0 0.0
2017-Nov-08 16:29N 69°54' E 021°19'0 0.0
2017-Nov-08 15:59N 69°54' E 021°19'0 0.0
2017-Nov-08 15:29N 69°54' E 021°19'0 0.0
2017-Nov-08 14:59N 69°54' E 021°19'0 0.0
2017-Nov-08 14:29N 69°54' E 021°19'0 0.0
2017-Nov-08 13:29N 69°54' E 021°19'0 0.0
2017-Nov-08 12:35N 69°54' E 021°19'0 0.0
2017-Nov-08 12:29N 69°54' E 021°19'0 0.0
2017-Nov-08 11:47N 69°54' E 021°19'0 0.0
2017-Nov-08 09:05N 69°54' E 021°19'0 0.0
2017-Nov-08 08:59N 69°54' E 021°19'0 0.0
2017-Nov-08 08:29N 69°54' E 021°19'0 0.0
2017-Nov-08 07:59N 69°54' E 021°19'0 0.0
2017-Nov-08 07:26N 69°54' E 021°19'0 0.0
2017-Nov-08 06:59N 69°54' E 021°19'0 0.0
2017-Nov-08 06:29N 69°54' E 021°19'0 0.0
2017-Nov-08 05:56N 69°54' E 021°19'0 0.0
2017-Nov-08 05:26N 69°54' E 021°19'0 0.0
2017-Nov-08 04:59N 69°54' E 021°19'0 0.0
2017-Nov-08 04:29N 69°54' E 021°19'0 0.0
2017-Nov-08 03:59N 69°54' E 021°19'0 0.0
2017-Nov-08 03:29N 69°54' E 021°19'0 0.0
2017-Nov-08 02:59N 69°54' E 021°19'0 0.0
2017-Nov-08 02:29N 69°54' E 021°19'0 0.0
2017-Nov-08 01:59N 69°54' E 021°19'0 0.0
2017-Nov-08 01:29N 69°54' E 021°19'0 0.0
2017-Nov-08 00:56N 69°54' E 021°19'0 0.0
2017-Nov-08 00:29N 69°54' E 021°19'0 0.0
2017-Nov-07 22:38N 69°54' E 021°19'0 0.0
2017-Nov-07 22:29N 69°54' E 021°19'0 0.0
2017-Nov-07 21:59N 69°54' E 021°19'0 0.0
2017-Nov-07 21:29N 69°54' E 021°19'0 0.0
2017-Nov-07 20:59N 69°54' E 021°19'0 0.0
2017-Nov-07 20:29N 69°54' E 021°19'0 0.0
2017-Nov-07 19:59N 69°54' E 021°19'0 0.0
2017-Nov-07 19:29N 69°54' E 021°19'0 0.0
2017-Nov-07 18:59N 69°54' E 021°19'0 0.0
2017-Nov-07 18:29N 69°54' E 021°19'0 0.0
2017-Nov-07 17:59N 69°54' E 021°19'0 0.0
2017-Nov-07 17:29N 69°54' E 021°19'0 0.0
2017-Nov-07 16:59N 69°54' E 021°19'0 0.0
2017-Nov-07 16:29N 69°54' E 021°19'0 0.0
2017-Nov-07 15:59N 69°54' E 021°19'0 0.0
2017-Nov-07 15:29N 69°54' E 021°19'0 0.0
2017-Nov-07 14:59N 69°54' E 021°19'2 3.8
2017-Nov-07 14:29N 69°55' E 021°14'3 7.0
2017-Nov-07 14:00N 69°58' E 021°08'4 7.2
2017-Nov-07 13:30N 70°01' E 021°03'2 3.4
2017-Nov-07 12:58N 70°02' E 020°59'1 2.7
2017-Nov-07 12:25N 70°01' E 021°02'2 3.1
2017-Nov-07 11:54N 70°00' E 021°06'0 0.5
2017-Nov-07 11:30N 70°00' E 021°06'1 1.6
2017-Nov-07 10:58N 69°59' E 021°05'0 0.5
2017-Nov-07 10:23N 69°60' E 021°05'2 5.3
2017-Nov-07 10:00N 69°58' E 021°06'2 3.1
2017-Nov-07 09:28N 69°56' E 021°07'0 0.5
2017-Nov-07 08:59N 69°56' E 021°06'2 4.5
2017-Nov-07 08:30N 69°55' E 021°12'3 4.9
2017-Nov-07 07:59N 69°54' E 021°19'0 0.0
2017-Nov-07 07:29N 69°54' E 021°19'0 0.0
2017-Nov-07 06:59N 69°54' E 021°19'0 0.0
2017-Nov-07 06:29N 69°54' E 021°19'0 0.0
2017-Nov-07 05:59N 69°54' E 021°19'0 0.0
2017-Nov-07 05:29N 69°54' E 021°19'0 0.0
2017-Nov-07 04:59N 69°54' E 021°19'0 0.0
2017-Nov-07 04:29N 69°54' E 021°19'0 0.0
2017-Nov-07 03:59N 69°54' E 021°19'0 0.0
2017-Nov-07 03:29N 69°54' E 021°19'0 0.0
2017-Nov-07 02:59N 69°54' E 021°19'0 0.0
2017-Nov-07 02:29N 69°54' E 021°19'0 0.0
2017-Nov-07 01:59N 69°54' E 021°19'0 0.0
2017-Nov-07 01:29N 69°54' E 021°19'0 0.0
2017-Nov-07 00:59N 69°54' E 021°19'0 0.0
2017-Nov-07 00:29N 69°54' E 021°19'0 0.0
2017-Nov-06 23:56N 69°54' E 021°19'0 0.0
2017-Nov-06 23:26N 69°54' E 021°19'0 0.0
2017-Nov-06 22:59N 69°54' E 021°19'0 0.0
2017-Nov-06 22:26N 69°54' E 021°19'0 0.0
2017-Nov-06 21:59N 69°54' E 021°19'0 0.0
2017-Nov-06 21:29N 69°54' E 021°19'0 0.0
2017-Nov-06 20:59N 69°54' E 021°19'0 0.0
2017-Nov-06 20:29N 69°54' E 021°19'  
Track history (hours):
 
Tides and Currents Weather Stations Pressure Air Temp Water Temp Dewpoint Dewpoint Depression Visibility Wind Speed Wind Dir Waves Ship Positions

Oyaad

Last reported at 2017-Nov-16 09:04 UTC. Time now 2017-Dec-15 06:43 UTC.
Position N 69°54' E 021°19'.
Warning: this ship's position is 28 days out of date.

Length 11 m.

Type: Fishing. MMSI: 257921700.

Date/timePositionNaut miles runAvg speedWind from/ knotsBaromVisibWave heightAir tempDewpointWater temp
2017-Nov-16 09:04N 69°54' E 021°19'0 0.0
2017-Nov-16 08:58N 69°54' E 021°19'0 0.0
2017-Nov-16 08:28N 69°54' E 021°19'0 0.0
2017-Nov-16 07:58N 69°54' E 021°19'0 0.0
2017-Nov-16 07:28N 69°54' E 021°19'0 0.0
2017-Nov-16 06:58N 69°54' E 021°19'0 0.0
2017-Nov-16 06:28N 69°54' E 021°19'0 0.0
2017-Nov-16 05:58N 69°54' E 021°19'0 0.0
2017-Nov-16 05:28N 69°54' E 021°19'0 0.0
2017-Nov-16 04:55N 69°54' E 021°19'0 0.0
2017-Nov-16 04:28N 69°54' E 021°19'0 0.0
2017-Nov-16 03:58N 69°54' E 021°19'0 0.0
2017-Nov-16 03:28N 69°54' E 021°19'0 0.0
2017-Nov-16 02:58N 69°54' E 021°19'0 0.0
2017-Nov-16 02:28N 69°54' E 021°19'0 0.0
2017-Nov-16 01:58N 69°54' E 021°19'0 0.0
2017-Nov-16 01:28N 69°54' E 021°19'0 0.0
2017-Nov-16 00:58N 69°54' E 021°19'0 0.0
2017-Nov-16 00:28N 69°54' E 021°19'0 0.0
2017-Nov-15 23:55N 69°54' E 021°19'0 0.0
2017-Nov-15 23:28N 69°54' E 021°19'0 0.0
2017-Nov-15 22:58N 69°54' E 021°19'0 0.0
2017-Nov-15 22:25N 69°54' E 021°19'0 0.0
2017-Nov-15 21:58N 69°54' E 021°19'0 0.0
2017-Nov-15 21:28N 69°54' E 021°19'0 0.0
2017-Nov-15 20:58N 69°54' E 021°19'0 0.0
2017-Nov-15 20:28N 69°54' E 021°19'0 0.0
2017-Nov-15 19:58N 69°54' E 021°19'0 0.0
2017-Nov-15 19:28N 69°54' E 021°19'0 0.0
2017-Nov-15 18:55N 69°54' E 021°19'0 0.0
2017-Nov-15 18:28N 69°54' E 021°19'0 0.0
2017-Nov-15 17:58N 69°54' E 021°19'0 0.0
2017-Nov-15 17:28N 69°54' E 021°19'0 0.0
2017-Nov-15 16:58N 69°54' E 021°19'0 0.0
2017-Nov-15 16:28N 69°54' E 021°19'0 0.0
2017-Nov-15 15:58N 69°54' E 021°19'0 0.3
2017-Nov-15 15:30N 69°54' E 021°19'4 7.2
2017-Nov-15 15:00N 69°54' E 021°08'4 7.8
2017-Nov-15 14:30N 69°52' E 020°59'1 0.6
2017-Nov-15 12:59N 69°52' E 020°56'4 7.4
2017-Nov-15 12:30N 69°55' E 021°02'5 7.0
2017-Nov-15 11:50N 69°60' E 021°05'3 7.3
2017-Nov-15 11:28N 70°02' E 021°00'1 1.2
2017-Nov-15 10:58N 70°02' E 020°59'1 3.2
2017-Nov-15 10:30N 70°01' E 021°02'2 2.9
2017-Nov-15 09:46N 69°59' E 021°04'0 0.2
2017-Nov-15 09:14N 69°59' E 021°04'0 0.6
2017-Nov-15 08:52N 69°59' E 021°05'0 0.3
2017-Nov-15 08:15N 69°60' E 021°05'0 1.9
2017-Nov-15 08:01N 70°00' E 021°06'2 4.6
2017-Nov-15 07:29N 70°02' E 021°10'0 0.3
2017-Nov-15 06:53N 70°02' E 021°10'0 0.4
2017-Nov-15 06:22N 70°02' E 021°11'0 0.4
2017-Nov-15 06:00N 70°02' E 021°11'0 1.0
2017-Nov-15 05:30N 70°01' E 021°10'4 6.9
2017-Nov-15 04:58N 69°58' E 021°10'3 6.1
2017-Nov-15 04:29N 69°55' E 021°14'2 3.6
2017-Nov-15 03:58N 69°54' E 021°19'0 0.0
2017-Nov-15 03:28N 69°54' E 021°19'0 0.0
2017-Nov-15 02:58N 69°54' E 021°19'0 0.0
2017-Nov-15 02:25N 69°54' E 021°19'0 0.0
2017-Nov-15 01:58N 69°54' E 021°19'0 0.0
2017-Nov-15 01:28N 69°54' E 021°19'0 0.0
2017-Nov-15 00:58N 69°54' E 021°19'0 0.0
2017-Nov-15 00:28N 69°54' E 021°19'0 0.0
2017-Nov-14 23:58N 69°54' E 021°19'0 0.0
2017-Nov-14 23:28N 69°54' E 021°19'0 0.0
2017-Nov-14 22:58N 69°54' E 021°19'0 0.0
2017-Nov-14 22:28N 69°54' E 021°19'0 0.0
2017-Nov-14 21:58N 69°54' E 021°19'0 0.0
2017-Nov-14 21:28N 69°54' E 021°19'0 0.0
2017-Nov-14 20:58N 69°54' E 021°19'0 0.0
2017-Nov-14 20:28N 69°54' E 021°19'0 0.0
2017-Nov-14 19:58N 69°54' E 021°19'0 0.0
2017-Nov-14 19:28N 69°54' E 021°19'0 0.0
2017-Nov-14 18:58N 69°54' E 021°19'0 0.0
2017-Nov-14 18:28N 69°54' E 021°19'0 0.0
2017-Nov-14 17:58N 69°54' E 021°19'0 0.0
2017-Nov-14 17:28N 69°54' E 021°19'1 1.1
2017-Nov-14 16:59N 69°55' E 021°18'1 1.2
2017-Nov-14 16:30N 69°54' E 021°16'0 0.9
2017-Nov-14 15:56N 69°55' E 021°15'2 5.2
2017-Nov-14 15:29N 69°56' E 021°10'4 6.9
2017-Nov-14 14:58N 69°60' E 021°10'3 5.6
2017-Nov-14 14:29N 70°03' E 021°10'0 0.2
2017-Nov-14 14:00N 70°03' E 021°10'0 0.2
2017-Nov-14 13:19N 70°02' E 021°10'0 0.4
2017-Nov-14 12:55N 70°02' E 021°11'2 5.0
2017-Nov-14 12:29N 70°02' E 021°04'2 3.8
2017-Nov-14 11:59N 70°02' E 020°59'1 2.4
2017-Nov-14 11:30N 70°01' E 021°01'0 0.2
2017-Nov-14 10:58N 70°01' E 021°01'2 3.5
2017-Nov-14 10:23N 69°60' E 021°05'0 0.9
2017-Nov-14 10:00N 69°59' E 021°05'0 0.2
2017-Nov-14 09:13N 69°60' E 021°05'0 0.3
2017-Nov-14 08:38N 69°60' E 021°05'0 2.2
2017-Nov-14 08:30N 69°59' E 021°04'0 0.2
2017-Nov-14 07:32N 69°59' E 021°04'0 1.0
2017-Nov-14 07:30N 69°59' E 021°04'4 7.3
2017-Nov-14 07:00N 69°56' E 021°09'4 7.3
2017-Nov-14 06:29N 69°54' E 021°19'0 0.3
2017-Nov-14 05:59N 69°54' E 021°19'0 0.0
2017-Nov-14 05:29N 69°54' E 021°19'0 0.0
2017-Nov-14 04:56N 69°54' E 021°19'0 0.0
2017-Nov-14 04:29N 69°54' E 021°19'0 0.0
2017-Nov-14 03:59N 69°54' E 021°19'0 0.0
2017-Nov-14 03:29N 69°54' E 021°19'0 0.0
2017-Nov-14 02:59N 69°54' E 021°19'0 0.0
2017-Nov-14 02:29N 69°54' E 021°19'0 0.0
2017-Nov-14 01:59N 69°54' E 021°19'0 0.0
2017-Nov-14 01:29N 69°54' E 021°19'0 0.0
2017-Nov-14 00:59N 69°54' E 021°19'0 0.0
2017-Nov-14 00:26N 69°54' E 021°19'0 0.0
2017-Nov-13 23:59N 69°54' E 021°19'0 0.0
2017-Nov-13 23:29N 69°54' E 021°19'0 0.0
2017-Nov-13 22:59N 69°54' E 021°19'0 0.0
2017-Nov-13 22:29N 69°54' E 021°19'0 0.0
2017-Nov-13 21:59N 69°54' E 021°19'0 0.0
2017-Nov-13 02:00N 69°54' E 021°19'0 0.0
2017-Nov-13 01:30N 69°54' E 021°19'0 0.0
2017-Nov-13 01:00N 69°54' E 021°19'0 0.0
2017-Nov-13 00:30N 69°54' E 021°19'0 0.0
2017-Nov-13 00:00N 69°54' E 021°19'0 0.0
2017-Nov-12 23:30N 69°54' E 021°19'0 0.0
2017-Nov-12 23:00N 69°54' E 021°19'0 0.0
2017-Nov-12 22:30N 69°54' E 021°19'0 0.0
2017-Nov-12 22:00N 69°54' E 021°19'0 0.0
2017-Nov-12 21:30N 69°54' E 021°19'0 0.0
2017-Nov-12 21:00N 69°54' E 021°19'0 0.0
2017-Nov-12 20:30N 69°54' E 021°19'0 0.0
2017-Nov-12 20:00N 69°54' E 021°19'0 0.0
2017-Nov-12 19:30N 69°54' E 021°19'0 0.0
2017-Nov-12 19:00N 69°54' E 021°19'0 0.0
2017-Nov-12 18:30N 69°54' E 021°19'0 0.0
2017-Nov-12 18:00N 69°54' E 021°19'0 0.0
2017-Nov-12 17:30N 69°54' E 021°19'0 0.0
2017-Nov-12 17:00N 69°54' E 021°19'0 0.0
2017-Nov-12 16:30N 69°54' E 021°19'0 0.0
2017-Nov-12 16:00N 69°54' E 021°19'0 0.0
2017-Nov-12 15:30N 69°54' E 021°19'0 0.0
2017-Nov-12 15:00N 69°54' E 021°19'0 0.0
2017-Nov-12 14:30N 69°54' E 021°19'3 5.3
2017-Nov-12 14:00N 69°55' E 021°12'4 7.2
2017-Nov-12 13:27N 69°59' E 021°06'3 7.1
2017-Nov-12 13:00N 70°01' E 021°02'1 2.2
2017-Nov-12 12:29N 70°02' E 020°59'0 0.3
2017-Nov-12 11:59N 70°02' E 020°59'3 6.7
2017-Nov-12 11:30N 70°03' E 021°08'1 1.3
2017-Nov-12 10:55N 70°03' E 021°10'0 0.4
2017-Nov-12 10:30N 70°03' E 021°10'1 1.7
2017-Nov-12 09:59N 70°03' E 021°10'2 3.7
2017-Nov-12 09:30N 70°01' E 021°06'0 0.5
2017-Nov-12 09:00N 70°01' E 021°07'1 2.1
2017-Nov-12 08:29N 70°00' E 021°05'1 0.7
2017-Nov-12 07:35N 69°59' E 021°05'0 0.1
2017-Nov-12 07:01N 69°59' E 021°05'0 7.3
2017-Nov-12 07:00N 69°59' E 021°05'4 7.5
2017-Nov-12 06:30N 69°56' E 021°10'3 6.8
2017-Nov-12 06:00N 69°54' E 021°19'0 0.0
2017-Nov-12 05:30N 69°54' E 021°19'0 0.0
2017-Nov-12 05:00N 69°54' E 021°19'0 0.0
2017-Nov-12 04:30N 69°54' E 021°19'0 0.0
2017-Nov-12 04:00N 69°54' E 021°19'0 0.0
2017-Nov-12 03:30N 69°54' E 021°19'0 0.0
2017-Nov-12 03:00N 69°54' E 021°19'0 0.0
2017-Nov-12 02:30N 69°54' E 021°19'0 0.0
2017-Nov-12 02:00N 69°54' E 021°19'0 0.0
2017-Nov-12 01:30N 69°54' E 021°19'0 0.0
2017-Nov-12 00:57N 69°54' E 021°19'0 0.0
2017-Nov-12 00:30N 69°54' E 021°19'0 0.0
2017-Nov-12 00:00N 69°54' E 021°19'0 0.0
2017-Nov-11 23:30N 69°54' E 021°19'0 0.0
2017-Nov-11 23:00N 69°54' E 021°19'0 0.0
2017-Nov-11 22:27N 69°54' E 021°19'0 0.0
2017-Nov-11 22:00N 69°54' E 021°19'0 0.0
2017-Nov-11 21:30N 69°54' E 021°19'0 0.0
2017-Nov-11 21:00N 69°54' E 021°19'0 0.0
2017-Nov-11 20:30N 69°54' E 021°19'0 0.0
2017-Nov-11 20:00N 69°54' E 021°19'0 0.0
2017-Nov-11 19:30N 69°54' E 021°19'0 0.0
2017-Nov-11 19:00N 69°54' E 021°19'0 0.0
2017-Nov-11 18:30N 69°54' E 021°19'0 0.0
2017-Nov-11 18:00N 69°54' E 021°19'0 0.0
2017-Nov-11 17:27N 69°54' E 021°19'0 0.0
2017-Nov-11 17:00N 69°54' E 021°19'0 0.0
2017-Nov-11 16:30N 69°54' E 021°19'0 0.0
2017-Nov-11 16:00N 69°54' E 021°19'0 0.0
2017-Nov-11 15:30N 69°54' E 021°19'0 0.0
2017-Nov-11 15:00N 69°54' E 021°19'2 3.3
2017-Nov-11 14:30N 69°55' E 021°15'3 6.5
2017-Nov-11 14:00N 69°58' E 021°10'4 7.1
2017-Nov-11 13:30N 70°01' E 021°10'1 2.2
2017-Nov-11 12:50N 70°03' E 021°10'0 0.3
2017-Nov-11 12:28N 70°03' E 021°10'0 0.3
2017-Nov-11 11:59N 70°03' E 021°10'1 1.3
2017-Nov-11 11:30N 70°03' E 021°10'0 0.2
2017-Nov-11 11:00N 70°03' E 021°10'0 0.4
2017-Nov-11 10:29N 70°03' E 021°10'1 2.3
2017-Nov-11 09:59N 70°02' E 021°09'1 2.8
2017-Nov-11 09:28N 70°01' E 021°07'0 0.2
2017-Nov-11 09:00N 70°01' E 021°07'1 2.9
2017-Nov-11 08:30N 69°60' E 021°05'0 0.6
2017-Nov-11 07:58N 69°59' E 021°05'0 0.2
2017-Nov-11 07:13N 69°59' E 021°05'2 7.4
2017-Nov-11 07:00N 69°58' E 021°06'4 7.4
2017-Nov-11 06:29N 69°55' E 021°13'2 4.6
2017-Nov-11 06:00N 69°54' E 021°19'0 0.0
2017-Nov-11 05:30N 69°54' E 021°19'0 0.0
2017-Nov-11 05:00N 69°54' E 021°19'0 0.0
2017-Nov-11 04:30N 69°54' E 021°19'0 0.0
2017-Nov-11 04:00N 69°54' E 021°19'0 0.0
2017-Nov-11 03:30N 69°54' E 021°19'0 0.0
2017-Nov-11 03:00N 69°54' E 021°19'0 0.0
2017-Nov-11 02:30N 69°54' E 021°19'0 0.0
2017-Nov-11 02:00N 69°54' E 021°19'0 0.0
2017-Nov-11 01:30N 69°54' E 021°19'0 0.0
2017-Nov-11 01:00N 69°54' E 021°19'0 0.0
2017-Nov-11 00:30N 69°54' E 021°19'0 0.0
2017-Nov-11 00:00N 69°54' E 021°19'0 0.0
2017-Nov-10 23:30N 69°54' E 021°19'0 0.0
2017-Nov-10 23:00N 69°54' E 021°19'0 0.0
2017-Nov-10 22:27N 69°54' E 021°19'0 0.0
2017-Nov-10 22:00N 69°54' E 021°19'0 0.0
2017-Nov-10 21:30N 69°54' E 021°19'0 0.0
2017-Nov-10 21:00N 69°54' E 021°19'0 0.0
2017-Nov-10 20:30N 69°54' E 021°19'0 0.0
2017-Nov-10 20:00N 69°54' E 021°19'0 0.0
2017-Nov-10 19:30N 69°54' E 021°19'0 0.0
2017-Nov-10 19:00N 69°54' E 021°19'0 0.0
2017-Nov-10 18:30N 69°54' E 021°19'0 0.0
2017-Nov-10 18:00N 69°54' E 021°19'0 0.0
2017-Nov-10 17:30N 69°54' E 021°19'0 0.0
2017-Nov-10 17:00N 69°54' E 021°19'0 0.0
2017-Nov-10 16:30N 69°54' E 021°19'0 0.0
2017-Nov-10 16:00N 69°54' E 021°19'0 0.0
2017-Nov-10 15:30N 69°54' E 021°19'0 0.0
2017-Nov-10 14:57N 69°54' E 021°19'0 0.0
2017-Nov-10 14:30N 69°54' E 021°19'0 0.0
2017-Nov-10 14:00N 69°54' E 021°19'0 0.0
2017-Nov-10 13:30N 69°54' E 021°19'0 0.0
2017-Nov-10 13:00N 69°54' E 021°19'0 0.0
2017-Nov-10 12:30N 69°54' E 021°19'0 0.0
2017-Nov-10 12:00N 69°54' E 021°19'4 7.1
2017-Nov-10 11:29N 69°56' E 021°10'3 5.8
2017-Nov-10 10:54N 69°59' E 021°05'2 4.5
2017-Nov-10 10:29N 70°01' E 021°07'2 4.8
2017-Nov-10 09:59N 70°03' E 021°09'1 2.7
2017-Nov-10 09:30N 70°02' E 021°10'4 6.7
2017-Nov-10 08:58N 69°58' E 021°10'3 7.0
2017-Nov-10 08:30N 69°55' E 021°13'2 4.5
2017-Nov-10 07:59N 69°54' E 021°19'0 0.0
2017-Nov-10 07:29N 69°54' E 021°19'0 0.0
2017-Nov-10 06:59N 69°54' E 021°19'0 0.0
2017-Nov-10 06:29N 69°54' E 021°19'0 0.0
2017-Nov-10 05:59N 69°54' E 021°19'0 0.0
2017-Nov-10 05:29N 69°54' E 021°19'0 0.0
2017-Nov-10 04:59N 69°54' E 021°19'0 0.0
2017-Nov-10 04:29N 69°54' E 021°19'0 0.0
2017-Nov-10 03:59N 69°54' E 021°19'0 0.0
2017-Nov-10 03:29N 69°54' E 021°19'0 0.0
2017-Nov-10 02:59N 69°54' E 021°19'0 0.0
2017-Nov-10 02:29N 69°54' E 021°19'0 0.0
2017-Nov-10 01:59N 69°54' E 021°19'0 0.0
2017-Nov-10 01:29N 69°54' E 021°19'0 0.0
2017-Nov-10 00:59N 69°54' E 021°19'0 0.0
2017-Nov-10 00:29N 69°54' E 021°19'0 0.0
2017-Nov-09 23:59N 69°54' E 021°19'0 0.0
2017-Nov-09 23:29N 69°54' E 021°19'0 0.0
2017-Nov-09 22:59N 69°54' E 021°19'0 0.0
2017-Nov-09 22:29N 69°54' E 021°19'0 0.0
2017-Nov-09 21:59N 69°54' E 021°19'0 0.0
2017-Nov-09 21:29N 69°54' E 021°19'0 0.0
2017-Nov-09 20:59N 69°54' E 021°19'0 0.0
2017-Nov-09 20:29N 69°54' E 021°19'0 0.0
2017-Nov-09 19:56N 69°54' E 021°19'0 0.0
2017-Nov-09 19:29N 69°54' E 021°19'0 0.0
2017-Nov-09 18:59N 69°54' E 021°19'0 0.0
2017-Nov-09 18:29N 69°54' E 021°19'0 0.0
2017-Nov-09 17:59N 69°54' E 021°19'0 0.0
2017-Nov-09 17:29N 69°54' E 021°19'0 0.0
2017-Nov-09 16:59N 69°54' E 021°19'0 0.0
2017-Nov-09 16:29N 69°54' E 021°19'0 0.0
2017-Nov-09 15:59N 69°54' E 021°19'0 0.0
2017-Nov-09 15:29N 69°54' E 021°19'0 0.0
2017-Nov-09 14:59N 69°54' E 021°19'0 0.0
2017-Nov-09 14:29N 69°54' E 021°19'0 0.0
2017-Nov-09 13:59N 69°54' E 021°19'0 0.0
2017-Nov-09 13:29N 69°54' E 021°19'0 0.0
2017-Nov-09 12:59N 69°54' E 021°19'0 0.0
2017-Nov-09 12:29N 69°54' E 021°19'0 0.0
2017-Nov-09 11:59N 69°54' E 021°19'0 0.0
2017-Nov-09 11:29N 69°54' E 021°19'0 0.0
2017-Nov-09 10:59N 69°54' E 021°19'0 0.0
2017-Nov-09 10:29N 69°54' E 021°19'0 0.0
2017-Nov-09 09:59N 69°54' E 021°19'0 0.0
2017-Nov-09 09:29N 69°54' E 021°19'0 0.0
2017-Nov-09 08:59N 69°54' E 021°19'0 0.0
2017-Nov-09 08:29N 69°54' E 021°19'0 0.0
2017-Nov-09 07:59N 69°54' E 021°19'0 0.0
2017-Nov-09 07:29N 69°54' E 021°19'0 0.0
2017-Nov-09 06:59N 69°54' E 021°19'0 0.0
2017-Nov-09 06:29N 69°54' E 021°19'0 0.0
2017-Nov-09 05:59N 69°54' E 021°19'0 0.0
2017-Nov-09 05:29N 69°54' E 021°19'0 0.0
2017-Nov-09 04:59N 69°54' E 021°19'0 0.0
2017-Nov-09 04:29N 69°54' E 021°19'0 0.0
2017-Nov-09 03:59N 69°54' E 021°19'0 0.0
2017-Nov-09 03:29N 69°54' E 021°19'0 0.0
2017-Nov-09 02:59N 69°54' E 021°19'0 0.0
2017-Nov-09 02:29N 69°54' E 021°19'0 0.0
2017-Nov-09 01:59N 69°54' E 021°19'0 0.0
2017-Nov-09 01:29N 69°54' E 021°19'0 0.0
2017-Nov-09 00:59N 69°54' E 021°19'0 0.0
2017-Nov-09 00:26N 69°54' E 021°19'0 0.0
2017-Nov-08 23:59N 69°54' E 021°19'0 0.0
2017-Nov-08 23:29N 69°54' E 021°19'0 0.0
2017-Nov-08 22:59N 69°54' E 021°19'0 0.0
2017-Nov-08 22:29N 69°54' E 021°19'0 0.0
2017-Nov-08 21:59N 69°54' E 021°19'0 0.0
2017-Nov-08 21:29N 69°54' E 021°19'0 0.0
2017-Nov-08 20:59N 69°54' E 021°19'0 0.0
2017-Nov-08 20:29N 69°54' E 021°19'0 0.0
2017-Nov-08 19:59N 69°54' E 021°19'0 0.0
2017-Nov-08 19:29N 69°54' E 021°19'0 0.0
2017-Nov-08 18:59N 69°54' E 021°19'0 0.0
2017-Nov-08 18:29N 69°54' E 021°19'0 0.0
2017-Nov-08 17:59N 69°54' E 021°19'0 0.0
2017-Nov-08 17:29N 69°54' E 021°19'0 0.0
2017-Nov-08 16:59N 69°54' E 021°19'0 0.0
2017-Nov-08 16:29N 69°54' E 021°19'0 0.0
2017-Nov-08 15:59N 69°54' E 021°19'0 0.0
2017-Nov-08 15:29N 69°54' E 021°19'0 0.0
2017-Nov-08 14:59N 69°54' E 021°19'0 0.0
2017-Nov-08 14:29N 69°54' E 021°19'0 0.0
2017-Nov-08 13:29N 69°54' E 021°19'0 0.0
2017-Nov-08 12:35N 69°54' E 021°19'0 0.0
2017-Nov-08 12:29N 69°54' E 021°19'0 0.0
2017-Nov-08 11:47N 69°54' E 021°19'0 0.0
2017-Nov-08 09:05N 69°54' E 021°19'0 0.0
2017-Nov-08 08:59N 69°54' E 021°19'0 0.0
2017-Nov-08 08:29N 69°54' E 021°19'0 0.0
2017-Nov-08 07:59N 69°54' E 021°19'0 0.0
2017-Nov-08 07:26N 69°54' E 021°19'0 0.0
2017-Nov-08 06:59N 69°54' E 021°19'0 0.0
2017-Nov-08 06:29N 69°54' E 021°19'0 0.0
2017-Nov-08 05:56N 69°54' E 021°19'0 0.0
2017-Nov-08 05:26N 69°54' E 021°19'0 0.0
2017-Nov-08 04:59N 69°54' E 021°19'0 0.0
2017-Nov-08 04:29N 69°54' E 021°19'0 0.0
2017-Nov-08 03:59N 69°54' E 021°19'0 0.0
2017-Nov-08 03:29N 69°54' E 021°19'0 0.0
2017-Nov-08 02:59N 69°54' E 021°19'0 0.0
2017-Nov-08 02:29N 69°54' E 021°19'0 0.0
2017-Nov-08 01:59N 69°54' E 021°19'0 0.0
2017-Nov-08 01:29N 69°54' E 021°19'0 0.0
2017-Nov-08 00:56N 69°54' E 021°19'0 0.0
2017-Nov-08 00:29N 69°54' E 021°19'0 0.0
2017-Nov-07 22:38N 69°54' E 021°19'0 0.0
2017-Nov-07 22:29N 69°54' E 021°19'0 0.0
2017-Nov-07 21:59N 69°54' E 021°19'0 0.0
2017-Nov-07 21:29N 69°54' E 021°19'0 0.0
2017-Nov-07 20:59N 69°54' E 021°19'0 0.0
2017-Nov-07 20:29N 69°54' E 021°19'0 0.0
2017-Nov-07 19:59N 69°54' E 021°19'0 0.0
2017-Nov-07 19:29N 69°54' E 021°19'0 0.0
2017-Nov-07 18:59N 69°54' E 021°19'0 0.0
2017-Nov-07 18:29N 69°54' E 021°19'0 0.0
2017-Nov-07 17:59N 69°54' E 021°19'0 0.0
2017-Nov-07 17:29N 69°54' E 021°19'0 0.0
2017-Nov-07 16:59N 69°54' E 021°19'0 0.0
2017-Nov-07 16:29N 69°54' E 021°19'0 0.0
2017-Nov-07 15:59N 69°54' E 021°19'0 0.0
2017-Nov-07 15:29N 69°54' E 021°19'0 0.0
2017-Nov-07 14:59N 69°54' E 021°19'2 3.8
2017-Nov-07 14:29N 69°55' E 021°14'3 7.0
2017-Nov-07 14:00N 69°58' E 021°08'4 7.2
2017-Nov-07 13:30N 70°01' E 021°03'2 3.4
2017-Nov-07 12:58N 70°02' E 020°59'1 2.7
2017-Nov-07 12:25N 70°01' E 021°02'2 3.1
2017-Nov-07 11:54N 70°00' E 021°06'0 0.5
2017-Nov-07 11:30N 70°00' E 021°06'1 1.6
2017-Nov-07 10:58N 69°59' E 021°05'0 0.5
2017-Nov-07 10:23N 69°60' E 021°05'2 5.3
2017-Nov-07 10:00N 69°58' E 021°06'2 3.1
2017-Nov-07 09:28N 69°56' E 021°07'0 0.5
2017-Nov-07 08:59N 69°56' E 021°06'2 4.5
2017-Nov-07 08:30N 69°55' E 021°12'3 4.9
2017-Nov-07 07:59N 69°54' E 021°19'0 0.0
2017-Nov-07 07:29N 69°54' E 021°19'0 0.0
2017-Nov-07 06:59N 69°54' E 021°19'0 0.0
2017-Nov-07 06:29N 69°54' E 021°19'0 0.0
2017-Nov-07 05:59N 69°54' E 021°19'0 0.0
2017-Nov-07 05:29N 69°54' E 021°19'0 0.0
2017-Nov-07 04:59N 69°54' E 021°19'0 0.0
2017-Nov-07 04:29N 69°54' E 021°19'0 0.0
2017-Nov-07 03:59N 69°54' E 021°19'0 0.0
2017-Nov-07 03:29N 69°54' E 021°19'0 0.0
2017-Nov-07 02:59N 69°54' E 021°19'0 0.0
2017-Nov-07 02:29N 69°54' E 021°19'0 0.0
2017-Nov-07 01:59N 69°54' E 021°19'0 0.0
2017-Nov-07 01:29N 69°54' E 021°19'0 0.0
2017-Nov-07 00:59N 69°54' E 021°19'0 0.0
2017-Nov-07 00:29N 69°54' E 021°19'0 0.0
2017-Nov-06 23:56N 69°54' E 021°19'0 0.0
2017-Nov-06 23:26N 69°54' E 021°19'0 0.0
2017-Nov-06 22:59N 69°54' E 021°19'0 0.0
2017-Nov-06 22:26N 69°54' E 021°19'0 0.0
2017-Nov-06 21:59N 69°54' E 021°19'0 0.0
2017-Nov-06 21:29N 69°54' E 021°19'0 0.0
2017-Nov-06 20:59N 69°54' E 021°19'0 0.0
2017-Nov-06 20:29N 69°54' E 021°19'  

Dump ship's entire track history